createdAt,value
2024-03-25T00:03:44.898Z,6.23
2024-03-25T00:07:45.840Z,5.63
2024-03-25T00:11:46.930Z,5.70
2024-03-25T00:15:48.100Z,6.07
2024-03-25T00:19:52.656Z,4.73
2024-03-25T00:23:55.709Z,6.60
2024-03-25T00:27:58.312Z,6.37
2024-03-25T00:31:59.497Z,5.23
2024-03-25T00:36:00.763Z,4.60
2024-03-25T00:40:02.319Z,4.57
2024-03-25T00:44:03.378Z,5.07
2024-03-25T00:48:04.922Z,4.87
2024-03-25T00:52:05.919Z,4.70
2024-03-25T00:56:06.886Z,4.83
2024-03-25T01:00:08.947Z,5.33
2024-03-25T01:04:10.036Z,4.63
2024-03-25T01:08:12.397Z,6.70
2024-03-25T01:12:13.392Z,4.73
2024-03-25T01:16:14.370Z,7.27
2024-03-25T01:20:16.429Z,6.17
2024-03-25T01:24:17.508Z,5.70
2024-03-25T01:28:19.613Z,6.77
2024-03-25T01:32:20.761Z,6.87
2024-03-25T01:36:22.048Z,6.47
2024-03-25T01:40:23.132Z,5.90
2024-03-25T01:44:25.007Z,5.20
2024-03-25T01:48:25.959Z,8.33
2024-03-25T01:52:28.727Z,6.03
2024-03-25T01:56:33.282Z,5.87
2024-03-25T02:00:35.191Z,5.50
2024-03-25T02:04:36.674Z,5.93
2024-03-25T02:08:38.958Z,5.70
2024-03-25T02:12:42.441Z,6.73
2024-03-25T02:16:43.471Z,6.03
2024-03-25T02:20:45.565Z,5.83
2024-03-25T02:24:48.140Z,5.80
2024-03-25T02:28:49.252Z,5.67
2024-03-25T02:32:50.808Z,6.07
2024-03-25T02:36:52.503Z,7.57
2024-03-25T02:40:53.747Z,5.40
2024-03-25T02:44:57.235Z,5.43
2024-03-25T02:48:58.346Z,6.57
2024-03-25T02:52:59.399Z,5.07
2024-03-25T02:57:00.476Z,5.93
2024-03-25T03:01:01.410Z,8.17
2024-03-25T03:05:04.579Z,7.40
2024-03-25T03:09:05.938Z,5.37
2024-03-25T03:13:07.070Z,5.33
2024-03-25T03:17:08.047Z,5.70
2024-03-25T03:21:09.168Z,5.43
2024-03-25T03:25:10.101Z,6.07
2024-03-25T03:29:11.292Z,5.50
2024-03-25T03:33:12.393Z,6.67
2024-03-25T03:37:13.484Z,5.67
2024-03-25T03:41:14.455Z,6.53
2024-03-25T03:45:15.582Z,5.13
2024-03-25T03:49:16.510Z,5.17
2024-03-25T03:53:17.987Z,5.83
2024-03-25T03:57:19.115Z,5.40
2024-03-25T04:01:20.184Z,7.20
2024-03-25T04:05:21.363Z,4.87
2024-03-25T04:09:24.119Z,6.40
2024-03-25T04:13:25.100Z,4.60
2024-03-25T04:17:26.221Z,5.23
2024-03-25T04:21:27.301Z,4.83
2024-03-25T04:25:28.415Z,5.80
2024-03-25T04:29:29.763Z,7.53
2024-03-25T04:33:30.744Z,6.07
2024-03-25T04:37:31.875Z,6.30
2024-03-25T04:41:32.853Z,5.83
2024-03-25T04:45:33.814Z,5.97
2024-03-25T04:49:34.935Z,5.83
2024-03-25T04:53:36.036Z,6.87
2024-03-25T04:57:37.135Z,6.17
2024-03-25T05:01:38.255Z,5.63
2024-03-25T05:05:39.267Z,6.30
2024-03-25T05:09:40.187Z,5.73
2024-03-25T05:13:41.266Z,5.70
2024-03-25T05:17:42.670Z,5.50
2024-03-25T05:21:43.866Z,5.77
2024-03-25T05:25:45.234Z,5.63
2024-03-25T05:29:46.410Z,5.77
2024-03-25T05:33:47.580Z,6.60
2024-03-25T05:37:48.667Z,6.53
2024-03-25T05:41:50.575Z,5.10
2024-03-25T05:45:53.979Z,6.03
2024-03-25T05:49:54.938Z,5.60
2024-03-25T05:53:56.091Z,5.87
2024-03-25T05:57:57.018Z,6.80
2024-03-25T06:01:58.181Z,7.60
2024-03-25T06:05:59.307Z,8.67
2024-03-25T06:10:00.337Z,5.77
2024-03-25T06:14:01.540Z,5.50
2024-03-25T06:18:02.636Z,8.10
2024-03-25T06:22:03.970Z,5.97
2024-03-25T06:26:05.053Z,7.77
2024-03-25T06:30:25.948Z,5.40
2024-03-25T06:34:26.901Z,6.17
2024-03-25T06:38:28.023Z,4.73
2024-03-25T06:42:29.224Z,6.17
2024-03-25T06:46:30.252Z,6.60
2024-03-25T06:50:31.369Z,5.40
2024-03-25T06:54:32.461Z,6.03
2024-03-25T06:58:33.563Z,5.40
2024-03-25T07:02:35.063Z,5.30
2024-03-25T07:06:36.211Z,5.37
2024-03-25T07:10:37.362Z,5.97
2024-03-25T07:14:38.352Z,5.07
2024-03-25T07:18:39.377Z,5.67
2024-03-25T07:22:40.352Z,5.77
2024-03-25T07:26:41.649Z,4.97
2024-03-25T07:30:42.867Z,4.73
2024-03-25T07:34:43.994Z,4.77
2024-03-25T07:38:44.984Z,4.60
2024-03-25T07:42:46.019Z,4.93
2024-03-25T07:46:47.130Z,4.33
2024-03-25T07:50:48.269Z,5.03
2024-03-25T07:54:49.369Z,5.70
2024-03-25T07:58:50.400Z,7.10
2024-03-25T08:02:51.558Z,4.87
2024-03-25T08:06:52.551Z,5.93
2024-03-25T08:10:53.701Z,4.93
2024-03-25T08:14:54.766Z,4.43
2024-03-25T08:18:55.881Z,4.43
2024-03-25T08:22:56.882Z,4.63
2024-03-25T08:26:58.313Z,3.87
2024-03-25T08:30:59.334Z,4.53
2024-03-25T08:35:00.532Z,4.53
2024-03-25T08:39:01.676Z,5.13
2024-03-25T08:43:03.007Z,4.60
2024-03-25T08:47:04.511Z,3.37
2024-03-25T08:51:05.658Z,3.53
2024-03-25T08:55:07.650Z,4.40
2024-03-25T08:59:10.263Z,4.43
2024-03-25T09:03:11.275Z,4.77
2024-03-25T09:07:15.126Z,4.60
2024-03-25T09:11:16.155Z,3.60
2024-03-25T09:15:17.221Z,3.27
2024-03-25T09:19:18.337Z,3.93
2024-03-25T09:23:19.534Z,5.00
2024-03-25T09:27:20.702Z,4.33
2024-03-25T09:31:22.933Z,3.00
2024-03-25T09:35:24.075Z,3.10
2024-03-25T09:39:25.372Z,2.57
2024-03-25T09:43:30.225Z,3.83
2024-03-25T09:47:31.462Z,3.20
2024-03-25T09:51:32.638Z,2.70
2024-03-25T09:55:33.899Z,2.93
2024-03-25T09:59:35.590Z,2.20
2024-03-25T10:03:36.786Z,3.03
2024-03-25T10:07:38.150Z,3.63
2024-03-25T10:11:39.271Z,2.80
2024-03-25T10:15:40.251Z,2.63
2024-03-25T10:19:41.262Z,2.37
2024-03-25T10:23:45.591Z,3.13
2024-03-25T10:27:58.035Z,2.07
2024-03-25T10:32:05.362Z,2.47
2024-03-25T10:36:09.403Z,1.83
2024-03-25T10:40:13.016Z,2.07
2024-03-25T10:44:14.117Z,2.03
2024-03-25T10:48:23.198Z,2.07
2024-03-25T10:52:26.994Z,2.30
2024-03-25T10:56:28.160Z,2.40
2024-03-25T11:00:29.714Z,1.47
2024-03-25T11:04:32.040Z,1.77
2024-03-25T11:08:33.015Z,3.07
2024-03-25T11:12:38.437Z,2.10
2024-03-25T11:16:40.099Z,2.13
2024-03-25T11:20:41.300Z,2.57
2024-03-25T11:24:44.383Z,2.87
2024-03-25T11:28:45.907Z,3.20
2024-03-25T11:32:55.729Z,2.50
2024-03-25T11:36:58.141Z,1.60
2024-03-25T11:40:59.445Z,2.43
2024-03-25T11:45:01.628Z,2.97
2024-03-25T11:49:05.023Z,2.13
2024-03-25T11:53:06.274Z,1.70
2024-03-25T11:57:08.746Z,1.87
2024-03-25T12:01:10.784Z,2.60
2024-03-25T12:05:12.310Z,1.47
2024-03-25T12:09:32.159Z,1.67
2024-03-25T12:13:33.285Z,2.00
2024-03-25T12:17:34.677Z,1.80
2024-03-25T12:21:37.188Z,1.60
2024-03-25T12:25:39.423Z,1.77
2024-03-25T12:29:41.052Z,2.10
2024-03-25T12:33:42.352Z,1.57
2024-03-25T12:37:45.180Z,1.13
2024-03-25T12:41:46.434Z,2.00
2024-03-25T12:45:47.711Z,3.53
2024-03-25T12:49:48.753Z,1.80
2024-03-25T12:53:49.967Z,1.77
2024-03-25T12:57:52.915Z,1.70
2024-03-25T13:01:54.206Z,2.43
2024-03-25T13:05:57.124Z,1.70
2024-03-25T13:09:58.637Z,1.63
2024-03-25T13:14:01.086Z,1.80
2024-03-25T13:18:02.536Z,2.27
2024-03-25T13:22:05.467Z,2.67
2024-03-25T13:26:06.921Z,2.87
2024-03-25T13:30:09.409Z,2.80
2024-03-25T13:34:10.532Z,3.07
2024-03-25T13:38:11.932Z,2.80
2024-03-25T13:42:13.017Z,2.83
2024-03-25T13:46:16.413Z,2.67
2024-03-25T13:50:17.641Z,3.30
2024-03-25T13:54:18.687Z,4.03
2024-03-25T13:58:19.839Z,3.00
2024-03-25T14:02:21.019Z,3.00
2024-03-25T14:06:22.130Z,1.97
2024-03-25T14:10:23.212Z,2.67
2024-03-25T14:14:24.526Z,3.37
2024-03-25T14:18:25.762Z,3.07
2024-03-25T14:22:26.780Z,3.20
2024-03-25T14:26:27.894Z,2.80
2024-03-25T14:30:31.496Z,4.87
2024-03-25T14:34:32.642Z,3.47
2024-03-25T14:38:35.034Z,2.67
2024-03-25T14:42:37.403Z,3.23
2024-03-25T14:46:38.555Z,3.30
2024-03-25T14:50:39.663Z,2.50
2024-03-25T14:54:40.930Z,2.60
2024-03-25T14:58:41.971Z,3.80
2024-03-25T15:02:43.096Z,3.00
2024-03-25T15:06:44.191Z,2.67
2024-03-25T15:10:48.303Z,2.83
2024-03-25T15:14:49.284Z,3.27
2024-03-25T15:18:51.620Z,2.97
2024-03-25T15:22:52.746Z,2.60
2024-03-25T15:26:53.762Z,3.00
2024-03-25T15:30:59.065Z,3.13
2024-03-25T15:35:00.948Z,2.57
2024-03-25T15:39:02.764Z,3.20
2024-03-25T15:43:04.064Z,2.67
2024-03-25T15:47:05.591Z,2.17
2024-03-25T15:51:07.735Z,2.60
2024-03-25T15:55:09.624Z,2.33
2024-03-25T15:59:10.616Z,2.60
2024-03-25T16:03:11.749Z,4.87
2024-03-25T16:07:13.303Z,3.53
2024-03-25T16:11:18.485Z,2.83
2024-03-25T16:15:19.481Z,2.83
2024-03-25T16:19:20.484Z,2.60
2024-03-25T16:23:21.595Z,3.30
2024-03-25T16:27:22.723Z,2.83
2024-03-25T16:31:23.884Z,2.60
2024-03-25T16:35:25.406Z,5.00
2024-03-25T16:39:26.614Z,3.17
2024-03-25T16:43:27.785Z,2.63
2024-03-25T16:47:29.090Z,2.87
2024-03-25T16:51:30.510Z,5.93
2024-03-25T16:55:31.622Z,2.63
2024-03-25T16:59:32.637Z,2.77
2024-03-25T17:03:35.868Z,3.67
2024-03-25T17:07:38.818Z,2.70
2024-03-25T17:11:40.133Z,2.60
2024-03-25T17:15:41.738Z,2.40
2024-03-25T17:19:42.830Z,2.30
2024-03-25T17:23:43.880Z,2.67
2024-03-25T17:27:45.806Z,2.70
2024-03-25T17:31:49.314Z,2.93
2024-03-25T17:35:50.328Z,2.43
2024-03-25T17:39:51.340Z,2.20
2024-03-25T17:43:52.471Z,2.70
2024-03-25T17:47:53.469Z,2.23
2024-03-25T17:51:55.115Z,3.03
2024-03-25T17:55:57.946Z,2.97
2024-03-25T17:59:59.382Z,3.93
2024-03-25T18:04:00.418Z,3.97
2024-03-25T18:08:01.388Z,3.40
2024-03-25T18:12:05.376Z,4.47
2024-03-25T18:16:06.769Z,4.70
2024-03-25T18:20:09.738Z,4.50
2024-03-25T18:24:12.374Z,5.00
2024-03-25T18:28:13.511Z,4.10
2024-03-25T18:32:14.476Z,4.20
2024-03-25T18:36:15.558Z,4.37
2024-03-25T18:40:17.084Z,3.70
2024-03-25T18:44:18.326Z,5.70
2024-03-25T18:48:20.968Z,7.47
2024-03-25T18:52:22.021Z,8.37
2024-03-25T18:56:24.973Z,9.90
2024-03-25T19:00:26.133Z,10.00
2024-03-25T19:04:27.109Z,8.37
2024-03-25T19:08:28.246Z,5.97
2024-03-25T19:12:29.264Z,7.93
2024-03-25T19:16:30.494Z,3.90
2024-03-25T19:20:31.607Z,3.00
2024-03-25T19:24:33.349Z,3.20
2024-03-25T19:28:34.347Z,2.90
2024-03-25T19:32:36.222Z,3.57
2024-03-25T19:36:37.325Z,3.70
2024-03-25T19:40:38.267Z,4.80
2024-03-25T19:44:39.279Z,4.00
2024-03-25T19:48:40.277Z,6.87
2024-03-25T19:52:41.380Z,7.93
2024-03-25T19:56:42.699Z,8.53
2024-03-25T20:00:43.723Z,5.37
2024-03-25T20:04:45.686Z,3.73
2024-03-25T20:08:46.704Z,6.27
2024-03-25T20:12:47.993Z,6.67
2024-03-25T20:16:49.002Z,8.03
2024-03-25T20:20:50.019Z,5.33
2024-03-25T20:24:50.999Z,3.83
2024-03-25T20:28:52.107Z,4.13
2024-03-25T20:32:54.150Z,4.83
2024-03-25T20:36:55.178Z,5.83
2024-03-25T20:40:56.145Z,3.77
2024-03-25T20:44:57.341Z,3.63
2024-03-25T20:48:58.348Z,4.07
2024-03-25T20:52:59.415Z,4.80
2024-03-25T20:57:00.425Z,4.17
2024-03-25T21:01:01.450Z,3.47
2024-03-25T21:05:03.892Z,4.90
2024-03-25T21:09:04.890Z,4.23
2024-03-25T21:13:05.876Z,4.43
2024-03-25T21:17:07.563Z,3.37
2024-03-25T21:21:08.544Z,3.63
2024-03-25T21:25:09.827Z,3.10
2024-03-25T21:29:11.371Z,4.37
2024-03-25T21:33:12.349Z,3.43
2024-03-25T21:37:13.354Z,3.40
2024-03-25T21:41:16.398Z,4.00
2024-03-25T21:45:17.387Z,3.97
2024-03-25T21:49:18.499Z,4.63
2024-03-25T21:53:19.680Z,3.00
2024-03-25T21:57:20.802Z,4.03
2024-03-25T22:01:22.249Z,3.47
2024-03-25T22:05:24.144Z,3.53
2024-03-25T22:09:25.475Z,4.13
2024-03-25T22:13:26.631Z,3.93
2024-03-25T22:17:28.868Z,3.60
2024-03-25T22:21:30.000Z,3.17
2024-03-25T22:25:31.282Z,3.40
2024-03-25T22:29:32.323Z,4.30
2024-03-25T22:33:33.340Z,4.00
2024-03-25T22:37:40.158Z,3.20
2024-03-25T22:41:37.324Z,3.03
2024-03-25T22:45:38.293Z,3.50
2024-03-25T22:49:39.263Z,3.60
2024-03-25T22:53:40.383Z,5.20
2024-03-25T22:57:41.424Z,3.40
2024-03-25T23:01:42.439Z,3.30
2024-03-25T23:05:43.436Z,4.33
2024-03-25T23:09:44.618Z,4.23
2024-03-25T23:13:45.577Z,3.70
2024-03-25T23:17:46.714Z,3.80
2024-03-25T23:21:47.689Z,4.37
2024-03-25T23:25:48.696Z,4.23
2024-03-25T23:29:49.718Z,4.43
2024-03-25T23:33:50.809Z,5.23
2024-03-25T23:37:52.034Z,4.43
2024-03-25T23:41:53.346Z,3.30
2024-03-25T23:45:57.124Z,3.47
2024-03-25T23:49:58.120Z,2.90
2024-03-25T23:53:59.251Z,2.97
2024-03-25T23:58:00.226Z,3.97
